Time;durP1;ratioP1;P1;durP2;ratioP2;P2;SDS_P1;SDS_P2;PMS_P1;PMS_P2;Temp;Humidity;BMP_temperature;BMP_pressure;BME280_temperature;BME280_humidity;BME280_pressure;Samples;Min_cycle;Max_cycle;Signal;HPM_P1;HPM_P2
2023/09/30 00:01:44;;;;;;;11.90;5.78;;;18.40;62.00;;;;;;5063369;28;20025;-61
2023/09/30 00:04:10;;;;;;;13.95;5.85;;;18.40;62.20;;;;;;5061498;28;20430;-60
2023/09/30 00:06:36;;;;;;;13.50;5.93;;;18.40;62.50;;;;;;5061454;28;20045;-60
2023/09/30 00:09:02;;;;;;;18.92;6.20;;;18.30;62.70;;;;;;5066612;28;20031;-60
2023/09/30 00:11:28;;;;;;;12.10;5.57;;;18.30;62.90;;;;;;5060380;28;20395;-60
2023/09/30 00:13:53;;;;;;;14.88;5.57;;;18.20;62.80;;;;;;5067865;28;20056;-60
2023/09/30 00:16:19;;;;;;;17.13;6.50;;;18.20;62.90;;;;;;5059639;28;20024;-61
2023/09/30 00:18:46;;;;;;;16.58;6.18;;;18.20;63.00;;;;;;5064985;28;20096;-60
2023/09/30 00:21:12;;;;;;;21.05;6.15;;;18.20;63.00;;;;;;5066758;28;20074;-60
2023/09/30 00:23:37;;;;;;;14.52;5.35;;;18.10;63.10;;;;;;5061846;28;20028;-59
2023/09/30 00:26:03;;;;;;;16.35;6.07;;;18.10;63.30;;;;;;5057496;28;20155;-60
2023/09/30 00:28:29;;;;;;;13.27;6.22;;;18.00;63.20;;;;;;5065825;28;20032;-60
2023/09/30 00:30:54;;;;;;;14.85;5.95;;;18.10;63.30;;;;;;5057020;28;20495;-60
2023/09/30 00:33:20;;;;;;;13.98;5.78;;;18.00;63.60;;;;;;5068850;28;20028;-64
2023/09/30 00:35:46;;;;;;;14.15;5.53;;;18.00;63.70;;;;;;5061152;28;20036;-60
2023/09/30 00:38:12;;;;;;;15.68;6.20;;;17.90;63.70;;;;;;5063750;28;20060;-59
2023/09/30 00:40:37;;;;;;;15.18;6.55;;;17.90;63.80;;;;;;5062916;28;20492;-60
2023/09/30 00:43:03;;;;;;;14.90;6.20;;;17.90;64.00;;;;;;5056202;28;20053;-60
2023/09/30 00:45:30;;;;;;;11.02;5.05;;;17.90;64.10;;;;;;5011173;28;20094;-59
2023/09/30 00:47:56;;;;;;;17.58;6.47;;;17.80;64.10;;;;;;5064014;28;20024;-60
2023/09/30 00:50:22;;;;;;;22.27;5.65;;;17.80;64.10;;;;;;5067476;28;20475;-60
2023/09/30 00:52:49;;;;;;;16.75;5.65;;;17.70;64.10;;;;;;5062655;28;20107;-60
2023/09/30 00:55:17;;;;;;;14.50;5.55;;;17.80;64.40;;;;;;5062831;28;20029;-59
2023/09/30 00:57:44;;;;;;;16.35;6.28;;;17.70;64.40;;;;;;5062934;28;20020;-59
2023/09/30 01:00:11;;;;;;;14.10;5.80;;;17.70;64.50;;;;;;5060132;28;20025;-60
2023/09/30 01:02:40;;;;;;;15.38;5.80;;;17.70;64.70;;;;;;5066875;28;20017;-59
2023/09/30 01:05:07;;;;;;;16.90;6.10;;;17.60;64.80;;;;;;5067271;28;20071;-60
2023/09/30 01:07:34;;;;;;;14.30;5.38;;;17.60;64.80;;;;;;5058839;28;20040;-59
2023/09/30 01:09:59;;;;;;;15.52;5.35;;;17.60;64.80;;;;;;5059362;28;20018;-60
2023/09/30 01:12:25;;;;;;;14.55;5.57;;;17.50;64.70;;;;;;5057874;28;20120;-60
2023/09/30 01:14:56;;;;;;;15.63;6.38;;;17.50;64.70;;;;;;5059282;28;20514;-60
2023/09/30 01:17:22;;;;;;;19.98;5.90;;;17.50;64.80;;;;;;5060573;28;20032;-60
2023/09/30 01:19:49;;;;;;;12.32;5.38;;;17.50;65.00;;;;;;5061201;28;20012;-61
2023/09/30 01:22:16;;;;;;;12.00;4.95;;;17.40;65.20;;;;;;5061832;28;20074;-61
2023/09/30 01:24:42;;;;;;;12.82;5.45;;;17.40;65.20;;;;;;5056493;28;20025;-60
2023/09/30 01:27:09;;;;;;;15.05;5.78;;;17.40;65.30;;;;;;5065476;28;20263;-60
2023/09/30 01:29:38;;;;;;;16.83;6.18;;;17.30;65.30;;;;;;5055583;28;20384;-60
2023/09/30 01:32:05;;;;;;;13.82;5.45;;;17.30;65.50;;;;;;5062521;28;20024;-59
2023/09/30 01:34:30;;;;;;;13.00;5.60;;;17.30;65.70;;;;;;5063761;28;20267;-59
2023/09/30 01:36:56;;;;;;;16.73;5.95;;;17.30;65.90;;;;;;5061891;28;20055;-60
2023/09/30 01:39:22;;;;;;;13.23;5.85;;;17.20;65.70;;;;;;5063802;28;20033;-60
2023/09/30 01:41:48;;;;;;;15.75;5.45;;;17.20;65.80;;;;;;5063037;28;20029;-60
2023/09/30 01:44:14;;;;;;;13.02;5.32;;;17.10;65.70;;;;;;5058672;28;20040;-60
2023/09/30 01:46:40;;;;;;;13.95;5.65;;;17.10;65.90;;;;;;4973696;28;20037;-60
2023/09/30 01:49:06;;;;;;;13.15;5.47;;;17.10;66.00;;;;;;5056569;28;20104;-60
2023/09/30 01:51:32;;;;;;;16.63;5.60;;;17.10;66.20;;;;;;5060999;28;20374;-60
2023/09/30 01:53:57;;;;;;;12.45;5.40;;;17.00;66.10;;;;;;5060410;28;20111;-60
2023/09/30 01:56:23;;;;;;;14.70;5.95;;;17.00;66.20;;;;;;5066923;28;20036;-60
2023/09/30 01:58:49;;;;;;;14.45;5.40;;;17.00;66.40;;;;;;5066514;28;20031;-60
2023/09/30 02:01:15;;;;;;;15.80;5.93;;;16.90;66.40;;;;;;5057309;28;20223;-60
2023/09/30 02:03:41;;;;;;;16.95;5.95;;;16.90;66.50;;;;;;5058909;28;20383;-60
2023/09/30 02:06:07;;;;;;;12.93;5.40;;;16.90;66.80;;;;;;5051123;28;20042;-60
2023/09/30 02:08:36;;;;;;;15.07;5.55;;;16.80;66.70;;;;;;5062550;28;20056;-61
2023/09/30 02:11:02;;;;;;;11.77;5.28;;;16.80;66.80;;;;;;5063861;28;20391;-60
2023/09/30 02:13:28;;;;;;;12.82;5.40;;;16.80;66.90;;;;;;5060408;28;20052;-60
2023/09/30 02:15:55;;;;;;;13.55;4.95;;;16.80;67.20;;;;;;5061350;28;20422;-60
2023/09/30 02:18:21;;;;;;;14.38;5.88;;;16.80;66.90;;;;;;5061170;28;20054;-59
2023/09/30 02:20:47;;;;;;;19.88;6.35;;;16.70;67.00;;;;;;5059741;28;20043;-60
2023/09/30 02:23:13;;;;;;;15.18;6.57;;;16.70;66.80;;;;;;5057450;28;20256;-60
2023/09/30 02:25:43;;;;;;;15.95;7.13;;;16.70;67.00;;;;;;5065589;28;20055;-60
2023/09/30 02:28:09;;;;;;;18.85;7.80;;;16.60;67.10;;;;;;5061537;28;20033;-59
2023/09/30 02:30:35;;;;;;;16.52;6.93;;;16.60;66.90;;;;;;5067294;28;20068;-60
2023/09/30 02:33:03;;;;;;;15.60;7.18;;;16.60;67.10;;;;;;5069355;28;20020;-60
2023/09/30 02:35:28;;;;;;;21.88;8.52;;;16.60;67.20;;;;;;5060761;28;20506;-59
2023/09/30 02:37:54;;;;;;;18.77;7.72;;;16.60;67.50;;;;;;5057841;28;20032;-61
2023/09/30 02:40:20;;;;;;;22.05;8.48;;;16.60;67.60;;;;;;5063262;28;20025;-61
2023/09/30 02:42:47;;;;;;;20.67;8.18;;;16.60;67.70;;;;;;5062360;28;20113;-61
2023/09/30 02:45:14;;;;;;;19.20;7.68;;;16.60;68.00;;;;;;5059953;28;20127;-60
2023/09/30 02:47:40;;;;;;;20.05;7.93;;;16.60;68.00;;;;;;5062881;28;20446;-60
2023/09/30 02:50:16;;;;;;;23.33;7.97;;;16.70;67.90;;;;;;5066201;28;20118;-61
2023/09/30 02:52:42;;;;;;;21.98;8.10;;;16.70;68.00;;;;;;5060699;28;20097;-60
2023/09/30 02:55:11;;;;;;;22.02;8.23;;;16.80;67.80;;;;;;5064192;28;20507;-60
2023/09/30 02:57:37;;;;;;;23.23;7.90;;;16.80;68.20;;;;;;5066140;28;20032;-59
2023/09/30 03:00:14;;;;;;;17.52;7.60;;;16.80;68.20;;;;;;5065792;28;20046;-59
2023/09/30 03:02:39;;;;;;;21.10;7.35;;;16.90;68.00;;;;;;5064653;28;20390;-59
2023/09/30 03:05:06;;;;;;;18.77;6.50;;;16.90;67.90;;;;;;5067853;28;20028;-59
2023/09/30 03:07:33;;;;;;;17.08;6.63;;;16.90;68.00;;;;;;5057777;28;20013;-60
2023/09/30 03:10:00;;;;;;;13.70;5.43;;;17.00;68.10;;;;;;5063017;28;20032;-60
2023/09/30 03:12:25;;;;;;;15.05;5.60;;;17.00;68.10;;;;;;5055547;28;20044;-59
2023/09/30 03:14:51;;;;;;;19.23;6.72;;;17.00;68.00;;;;;;5068131;28;20497;-61
2023/09/30 03:17:17;;;;;;;13.10;5.40;;;17.00;67.90;;;;;;5058903;28;20028;-60
2023/09/30 03:19:43;;;;;;;15.93;5.80;;;17.10;67.90;;;;;;5067550;28;20016;-60
2023/09/30 03:22:11;;;;;;;12.63;5.25;;;17.10;67.90;;;;;;5062456;28;20028;-60
2023/09/30 03:24:41;;;;;;;15.23;5.68;;;17.10;67.80;;;;;;5049629;28;20020;-60
2023/09/30 03:27:07;;;;;;;12.50;4.82;;;17.10;67.90;;;;;;5065300;28;20058;-59
2023/09/30 03:29:35;;;;;;;9.45;4.28;;;17.10;67.70;;;;;;5069255;28;20040;-61
2023/09/30 03:32:00;;;;;;;9.40;4.00;;;17.10;67.70;;;;;;5062740;28;20028;-60
2023/09/30 03:34:26;;;;;;;11.35;4.10;;;17.10;67.70;;;;;;5060284;28;20058;-60
2023/09/30 03:36:54;;;;;;;10.07;3.95;;;17.20;67.90;;;;;;5060733;28;20036;-61
2023/09/30 03:39:26;;;;;;;10.25;4.10;;;17.10;67.90;;;;;;5053812;28;20376;-61
2023/09/30 03:41:54;;;;;;;10.77;4.50;;;17.20;68.00;;;;;;5061207;28;20517;-60
2023/09/30 03:44:19;;;;;;;10.43;4.25;;;17.10;67.70;;;;;;5060977;28;20039;-60
2023/09/30 03:46:45;;;;;;;11.02;3.92;;;17.20;68.00;;;;;;4959416;28;20032;-60
2023/09/30 03:49:11;;;;;;;8.25;3.58;;;17.10;67.90;;;;;;5059352;28;20036;-59
2023/09/30 03:51:37;;;;;;;9.85;3.72;;;17.10;67.90;;;;;;5062513;28;20147;-59
2023/09/30 03:54:03;;;;;;;8.65;3.28;;;17.10;67.90;;;;;;5057563;28;20035;-60
2023/09/30 03:56:28;;;;;;;8.98;3.22;;;17.10;68.10;;;;;;5061440;28;20036;-60
2023/09/30 03:58:54;;;;;;;7.53;3.60;;;17.10;68.00;;;;;;5065305;28;20039;-61
2023/09/30 04:01:20;;;;;;;9.65;4.10;;;17.10;68.20;;;;;;5060748;28;20021;-60
2023/09/30 04:03:45;;;;;;;10.75;3.17;;;17.10;68.30;;;;;;5057534;28;20024;-60
2023/09/30 04:06:12;;;;;;;7.95;3.35;;;17.00;68.20;;;;;;5069954;28;20211;-61
2023/09/30 04:08:38;;;;;;;8.02;3.47;;;17.00;68.20;;;;;;5056230;28;20159;-60
2023/09/30 04:11:04;;;;;;;7.22;3.35;;;17.00;68.30;;;;;;5066297;28;20115;-60
2023/09/30 04:13:29;;;;;;;6.85;3.20;;;17.00;68.30;;;;;;5057465;28;20136;-59
2023/09/30 04:15:58;;;;;;;7.70;3.55;;;17.00;68.30;;;;;;5064219;28;20024;-60
2023/09/30 04:18:26;;;;;;;8.90;3.53;;;17.00;68.20;;;;;;5063721;28;20031;-60
2023/09/30 04:20:52;;;;;;;7.90;3.65;;;16.90;68.20;;;;;;5065346;28;20064;-60
2023/09/30 04:23:20;;;;;;;9.60;3.45;;;16.90;68.40;;;;;;5059470;28;20038;-60
2023/09/30 04:25:46;;;;;;;6.63;3.22;;;16.90;68.30;;;;;;5060109;28;20036;-60
2023/09/30 04:28:13;;;;;;;7.82;3.05;;;16.90;68.20;;;;;;5068010;28;20479;-60
2023/09/30 04:30:39;;;;;;;8.13;3.40;;;16.90;68.30;;;;;;5059677;28;20502;-60
2023/09/30 04:33:05;;;;;;;8.80;3.53;;;16.80;68.20;;;;;;5056714;28;20483;-60
2023/09/30 04:35:31;;;;;;;7.70;3.33;;;16.80;68.30;;;;;;5067997;28;20551;-60
2023/09/30 04:38:01;;;;;;;6.68;3.35;;;16.80;68.30;;;;;;5060113;28;20104;-61
2023/09/30 04:40:27;;;;;;;10.65;3.38;;;16.80;68.20;;;;;;5059145;28;20019;-61
2023/09/30 04:42:58;;;;;;;11.60;3.67;;;16.70;68.00;;;;;;5066167;28;20035;-60
2023/09/30 04:45:25;;;;;;;8.45;3.75;;;16.70;68.10;;;;;;5003184;28;20052;-60
2023/09/30 04:47:50;;;;;;;7.20;3.67;;;16.60;68.20;;;;;;5054143;28;20032;-60
2023/09/30 04:50:16;;;;;;;9.32;3.80;;;16.60;68.30;;;;;;5048117;28;20396;-60
2023/09/30 04:52:44;;;;;;;7.07;3.00;;;16.60;68.30;;;;;;5054063;28;20032;-61
2023/09/30 04:55:12;;;;;;;8.32;3.42;;;16.50;68.30;;;;;;5062872;28;20020;-60
2023/09/30 04:57:38;;;;;;;5.60;2.90;;;16.50;68.20;;;;;;5058748;28;20512;-61
2023/09/30 05:00:11;;;;;;;8.35;3.50;;;16.40;68.00;;;;;;5064014;28;20303;-60
2023/09/30 05:02:36;;;;;;;6.72;3.42;;;16.40;68.10;;;;;;5062940;28;20029;-60
2023/09/30 05:05:05;;;;;;;7.22;3.33;;;16.30;68.00;;;;;;5058996;28;20028;-60
2023/09/30 05:07:31;;;;;;;6.85;3.45;;;16.30;68.20;;;;;;5062488;28;20040;-60
2023/09/30 05:09:57;;;;;;;9.80;3.78;;;16.30;68.40;;;;;;5061930;28;20025;-60
2023/09/30 05:12:23;;;;;;;7.38;3.47;;;16.20;68.60;;;;;;5062065;28;20087;-60
2023/09/30 05:14:49;;;;;;;10.07;3.90;;;16.20;68.90;;;;;;5053657;28;20056;-60
2023/09/30 05:17:15;;;;;;;8.68;3.85;;;16.10;69.80;;;;;;5064991;28;20028;-59
2023/09/30 05:19:41;;;;;;;8.20;3.45;;;16.10;69.20;;;;;;5059445;28;20500;-60
2023/09/30 05:22:07;;;;;;;7.72;4.05;;;16.00;69.30;;;;;;5062563;28;20222;-60
2023/09/30 05:24:33;;;;;;;6.40;3.42;;;16.00;69.30;;;;;;5060151;28;20068;-60
2023/09/30 05:26:58;;;;;;;7.78;3.70;;;16.00;69.50;;;;;;5061002;28;20399;-60
2023/09/30 05:29:24;;;;;;;8.00;3.45;;;15.90;69.60;;;;;;5060602;28;20043;-60
2023/09/30 05:31:49;;;;;;;6.75;3.40;;;15.90;69.70;;;;;;5060018;28;20029;-60
2023/09/30 05:34:15;;;;;;;7.97;3.65;;;15.80;69.70;;;;;;5063072;28;20032;-60
2023/09/30 05:36:42;;;;;;;8.73;3.58;;;15.80;69.90;;;;;;5062785;28;20072;-60
2023/09/30 05:39:10;;;;;;;11.45;4.05;;;15.80;70.10;;;;;;5056559;28;20114;-60
2023/09/30 05:41:37;;;;;;;8.50;3.63;;;15.70;69.90;;;;;;5062655;28;20032;-60
2023/09/30 05:44:03;;;;;;;8.98;3.55;;;15.70;70.30;;;;;;5055456;28;20996;-60
2023/09/30 05:46:31;;;;;;;12.27;4.13;;;15.70;70.20;;;;;;5061700;28;20040;-59
2023/09/30 05:48:56;;;;;;;7.80;3.53;;;15.70;70.50;;;;;;5060189;28;20025;-61
2023/09/30 05:51:22;;;;;;;8.48;3.22;;;15.60;70.40;;;;;;5064120;28;20349;-61
2023/09/30 05:53:48;;;;;;;10.63;3.33;;;15.60;70.50;;;;;;5068249;28;20482;-60
2023/09/30 05:56:15;;;;;;;6.78;3.30;;;15.60;70.60;;;;;;5065890;28;20060;-61
2023/09/30 05:58:41;;;;;;;11.68;2.97;;;15.60;70.80;;;;;;5053906;28;20032;-61
2023/09/30 06:01:10;;;;;;;8.45;3.70;;;15.60;70.80;;;;;;5053002;28;20040;-61
2023/09/30 06:03:39;;;;;;;6.88;2.90;;;15.60;71.00;;;;;;5066662;28;20043;-59
2023/09/30 06:06:12;;;;;;;6.53;3.00;;;15.60;71.20;;;;;;5061188;28;20104;-60
2023/09/30 06:08:38;;;;;;;7.43;3.55;;;15.70;71.30;;;;;;5059750;28;20074;-59
2023/09/30 06:11:04;;;;;;;8.10;3.35;;;15.70;70.60;;;;;;5065378;28;20391;-60
2023/09/30 06:13:31;;;;;;;8.75;3.05;;;15.70;70.50;;;;;;5060986;28;20049;-59
2023/09/30 06:15:57;;;;;;;5.95;3.30;;;15.70;70.30;;;;;;5055414;28;20082;-62
2023/09/30 06:18:23;;;;;;;8.25;3.97;;;15.70;70.40;;;;;;5065672;28;20028;-60
2023/09/30 06:20:50;;;;;;;9.25;3.67;;;15.80;70.60;;;;;;5065789;28;20097;-59
2023/09/30 06:23:16;;;;;;;6.85;3.75;;;15.80;70.50;;;;;;5052571;28;20032;-60
2023/09/30 06:25:42;;;;;;;6.80;3.72;;;15.80;70.50;;;;;;5060956;28;20036;-60
2023/09/30 06:28:08;;;;;;;7.18;3.67;;;15.80;70.70;;;;;;5059098;28;20502;-59
2023/09/30 06:30:34;;;;;;;11.82;3.85;;;15.90;70.90;;;;;;5068093;28;20039;-61
2023/09/30 06:33:01;;;;;;;8.25;3.85;;;15.80;70.90;;;;;;5067765;28;20016;-59
2023/09/30 06:35:29;;;;;;;7.60;3.95;;;15.90;71.30;;;;;;5068175;28;20035;-59
2023/09/30 06:37:55;;;;;;;10.68;4.47;;;15.90;71.50;;;;;;5067742;28;20523;-59
2023/09/30 06:40:22;;;;;;;11.48;4.43;;;15.90;71.60;;;;;;5062022;28;20221;-61
2023/09/30 06:42:47;;;;;;;10.95;3.80;;;16.00;72.50;;;;;;5059553;28;20536;-60
2023/09/30 06:45:13;;;;;;;10.27;3.72;;;16.00;71.90;;;;;;5063409;28;20489;-62
2023/09/30 06:47:41;;;;;;;12.52;4.38;;;16.10;71.90;;;;;;5064587;28;20107;-60
2023/09/30 06:50:12;;;;;;;7.88;4.15;;;16.20;71.90;;;;;;5068483;28;20013;-59
2023/09/30 06:52:45;;;;;;;8.43;3.92;;;16.30;72.10;;;;;;5064149;28;20017;-59
2023/09/30 06:55:13;;;;;;;8.73;4.18;;;16.30;71.80;;;;;;5057970;28;20372;-60
2023/09/30 06:57:40;;;;;;;14.18;5.93;;;16.40;71.60;;;;;;5066302;28;20051;-60
2023/09/30 07:00:11;;;;;;;8.50;5.45;;;16.50;71.50;;;;;;5065713;28;20028;-61
2023/09/30 07:02:38;;;;;;;15.38;5.30;;;16.50;71.90;;;;;;5066330;28;20028;-59
2023/09/30 07:05:14;;;;;;;8.98;4.28;;;16.60;71.60;;;;;;5065462;28;20024;-60
2023/09/30 07:07:42;;;;;;;8.82;4.50;;;16.60;72.20;;;;;;5062809;28;20028;-60
2023/09/30 07:10:09;;;;;;;8.07;4.18;;;16.70;71.80;;;;;;5064826;28;20027;-60
2023/09/30 07:12:35;;;;;;;10.25;3.97;;;16.70;71.90;;;;;;5064445;28;20453;-59
2023/09/30 07:15:05;;;;;;;9.10;4.07;;;16.80;72.00;;;;;;5063707;28;20479;-61
2023/09/30 07:17:32;;;;;;;7.57;3.97;;;16.90;72.10;;;;;;5063234;28;20120;-61
2023/09/30 07:19:57;;;;;;;7.55;3.67;;;17.00;71.80;;;;;;5067521;28;20028;-61
2023/09/30 07:22:23;;;;;;;9.32;3.78;;;17.10;71.80;;;;;;5062919;28;20541;-61
2023/09/30 07:24:49;;;;;;;11.95;4.32;;;17.20;71.60;;;;;;5061589;28;20479;-61
2023/09/30 07:27:14;;;;;;;7.38;3.70;;;17.30;71.50;;;;;;5062511;28;20467;-61
2023/09/30 07:29:40;;;;;;;9.70;4.07;;;17.40;71.30;;;;;;5067325;28;20063;-61
2023/09/30 07:32:07;;;;;;;9.63;4.25;;;17.50;71.20;;;;;;5053392;28;20030;-61
2023/09/30 07:34:33;;;;;;;7.97;4.30;;;17.70;71.30;;;;;;5067390;28;20020;-61
2023/09/30 07:36:58;;;;;;;7.28;3.95;;;17.70;71.00;;;;;;5064894;28;20017;-60
2023/09/30 07:39:24;;;;;;;9.65;4.53;;;17.90;70.90;;;;;;5053995;28;20032;-60
2023/09/30 07:41:50;;;;;;;8.70;4.68;;;18.00;70.80;;;;;;5056813;28;20068;-60
2023/09/30 07:44:15;;;;;;;8.20;3.70;;;18.10;70.70;;;;;;5060632;28;20064;-61
2023/09/30 07:46:41;;;;;;;6.07;3.53;;;18.20;70.20;;;;;;5065198;28;20069;-61
2023/09/30 07:49:10;;;;;;;6.57;3.67;;;18.30;70.00;;;;;;5070201;28;20016;-61
2023/09/30 07:51:36;;;;;;;7.20;3.50;;;18.50;69.90;;;;;;5064588;28;20078;-61
2023/09/30 07:54:03;;;;;;;6.32;3.35;;;18.60;69.70;;;;;;5070704;28;20033;-61
2023/09/30 07:56:29;;;;;;;10.13;4.05;;;18.70;69.40;;;;;;5067412;28;20142;-61
2023/09/30 07:58:55;;;;;;;5.93;3.50;;;18.90;68.80;;;;;;5060393;28;20032;-62
2023/09/30 08:01:21;;;;;;;9.23;3.78;;;19.00;68.50;;;;;;5059608;28;20032;-62
2023/09/30 08:03:47;;;;;;;7.97;4.07;;;19.20;68.40;;;;;;5067660;28;20051;-61
2023/09/30 08:06:12;;;;;;;6.75;3.55;;;19.20;68.10;;;;;;5055477;28;20037;-61
2023/09/30 08:08:38;;;;;;;16.02;3.40;;;19.30;67.90;;;;;;5063450;28;20048;-60
2023/09/30 08:11:06;;;;;;;6.13;3.60;;;19.50;67.60;;;;;;5063540;28;20052;-61
2023/09/30 08:13:32;;;;;;;11.10;3.97;;;19.60;67.30;;;;;;5058004;28;20067;-60
2023/09/30 08:15:59;;;;;;;6.07;3.35;;;19.60;67.00;;;;;;5066303;28;20103;-60
2023/09/30 08:18:25;;;;;;;9.98;3.90;;;19.70;66.80;;;;;;5068750;28;20032;-61
2023/09/30 08:20:50;;;;;;;6.88;3.90;;;19.80;66.40;;;;;;5063111;28;20035;-61
2023/09/30 08:23:16;;;;;;;7.43;3.03;;;19.90;66.20;;;;;;5057934;28;20047;-61
2023/09/30 08:25:42;;;;;;;9.65;3.90;;;19.90;66.00;;;;;;5063098;28;20498;-60
2023/09/30 08:28:09;;;;;;;8.73;3.58;;;20.00;65.70;;;;;;5060821;28;20028;-60
2023/09/30 08:30:38;;;;;;;8.50;3.67;;;20.10;65.60;;;;;;5060653;28;20024;-61
2023/09/30 08:33:04;;;;;;;6.90;3.45;;;20.20;65.20;;;;;;5067079;28;20024;-62
2023/09/30 08:35:31;;;;;;;29.50;5.20;;;20.30;64.70;;;;;;5068354;28;20817;-60
2023/09/30 08:37:58;;;;;;;18.23;5.00;;;20.40;63.90;;;;;;5054658;28;20083;-61
2023/09/30 08:40:24;;;;;;;8.68;3.75;;;20.60;63.10;;;;;;5054582;28;20021;-62
2023/09/30 08:42:52;;;;;;;9.10;4.43;;;20.60;62.80;;;;;;5059495;28;20070;-62
2023/09/30 08:45:18;;;;;;;15.27;4.90;;;20.70;62.40;;;;;;4971224;28;20037;-61
2023/09/30 08:47:44;;;;;;;9.88;4.80;;;20.80;62.00;;;;;;5064494;28;20135;-61
2023/09/30 08:50:10;;;;;;;13.05;4.57;;;20.90;61.40;;;;;;5064459;28;20472;-62
2023/09/30 08:52:39;;;;;;;9.93;4.13;;;21.00;61.30;;;;;;5064471;28;20084;-61
2023/09/30 08:55:10;;;;;;;8.98;4.20;;;21.10;60.80;;;;;;5051439;28;20514;-61
2023/09/30 08:57:45;;;;;;;12.18;5.53;;;21.20;60.50;;;;;;5060822;28;20024;-61
2023/09/30 09:00:12;;;;;;;10.40;4.80;;;21.30;59.70;;;;;;5058105;28;20044;-61
2023/09/30 09:02:39;;;;;;;11.77;4.78;;;21.40;60.10;;;;;;5064668;28;20033;-60
2023/09/30 09:05:06;;;;;;;9.82;4.93;;;21.60;60.00;;;;;;5057690;28;20771;-61
2023/09/30 09:07:33;;;;;;;11.57;5.20;;;21.70;59.70;;;;;;5056529;28;20040;-60
2023/09/30 09:10:05;;;;;;;11.95;5.57;;;21.90;59.10;;;;;;5058297;28;20055;-61
2023/09/30 09:12:33;;;;;;;11.93;5.90;;;22.10;57.90;;;;;;5063262;28;20084;-61
2023/09/30 09:14:59;;;;;;;13.63;5.43;;;22.10;57.30;;;;;;5066051;28;20031;-61
2023/09/30 09:17:41;;;;;;;12.35;5.22;;;22.20;56.60;;;;;;5054626;28;20033;-61
2023/09/30 09:20:09;;;;;;;14.02;4.72;;;22.20;56.40;;;;;;5057452;28;20474;-62
2023/09/30 09:22:39;;;;;;;13.85;5.45;;;22.20;56.90;;;;;;5053357;28;20040;-62
2023/09/30 09:25:05;;;;;;;13.50;5.30;;;22.20;56.40;;;;;;5064933;28;20024;-63
2023/09/30 09:27:35;;;;;;;8.88;4.72;;;22.20;56.80;;;;;;5062677;28;20064;-61
2023/09/30 09:30:20;;;;;;;10.38;5.18;;;22.30;56.30;;;;;;5055393;28;20029;-61
2023/09/30 09:33:05;;;;;;;11.20;5.68;;;22.30;54.80;;;;;;5060904;28;20415;-61
2023/09/30 09:35:35;;;;;;;12.63;4.95;;;22.20;54.60;;;;;;5067183;28;20029;-61
2023/09/30 09:38:05;;;;;;;14.25;4.82;;;22.20;54.80;;;;;;5058214;28;20039;-61
2023/09/30 09:40:35;;;;;;;11.13;5.13;;;22.10;55.10;;;;;;5056928;28;20021;-61
2023/09/30 09:43:05;;;;;;;9.05;4.70;;;22.10;55.00;;;;;;5062270;28;20499;-62
2023/09/30 09:45:37;;;;;;;8.95;4.45;;;22.20;55.30;;;;;;4986162;28;20471;-61
2023/09/30 09:48:04;;;;;;;9.23;4.55;;;22.20;55.10;;;;;;5056340;28;20483;-61
2023/09/30 09:50:32;;;;;;;6.80;4.30;;;22.40;55.40;;;;;;5061113;28;20479;-62
2023/09/30 09:53:00;;;;;;;11.73;4.90;;;22.50;55.40;;;;;;5062012;28;20360;-61
2023/09/30 09:55:27;;;;;;;10.30;4.65;;;22.60;55.30;;;;;;5065476;28;20036;-61
2023/09/30 09:57:54;;;;;;;9.00;4.80;;;22.80;55.30;;;;;;5064179;28;20048;-62
2023/09/30 10:00:23;;;;;;;10.60;4.90;;;22.90;55.90;;;;;;5066604;28;20063;-62
2023/09/30 10:02:50;;;;;;;8.68;4.85;;;23.10;55.20;;;;;;5060268;28;20518;-61
2023/09/30 10:05:16;;;;;;;10.02;5.32;;;23.20;54.00;;;;;;5063051;28;20127;-61
2023/09/30 10:07:57;;;;;;;12.05;5.97;;;23.40;54.10;;;;;;5059881;28;20047;-61
2023/09/30 10:10:24;;;;;;;12.32;5.38;;;23.50;52.80;;;;;;5061605;28;20059;-61
2023/09/30 10:12:50;;;;;;;11.90;5.40;;;23.60;52.50;;;;;;5050337;28;20254;-62
2023/09/30 10:15:25;;;;;;;11.60;5.32;;;23.60;51.40;;;;;;5059705;28;20488;-63
2023/09/30 10:18:06;;;;;;;15.32;6.18;;;23.70;50.60;;;;;;5061866;28;20037;-61
2023/09/30 10:20:37;;;;;;;13.27;5.38;;;23.70;50.70;;;;;;5059941;28;20112;-62
2023/09/30 10:23:19;;;;;;;10.48;5.47;;;23.80;52.00;;;;;;5059463;28;20039;-62
2023/09/30 10:25:49;;;;;;;12.18;5.32;;;24.00;49.70;;;;;;5063165;28;20036;-62
2023/09/30 10:28:36;;;;;;;9.45;4.95;;;24.10;51.20;;;;;;5062830;28;20024;-63
2023/09/30 10:31:15;;;;;;;16.00;5.20;;;24.20;50.20;;;;;;5059556;28;20055;-62
2023/09/30 10:34:02;;;;;;;13.05;5.75;;;24.30;49.90;;;;;;5058711;28;20044;-61
2023/09/30 10:36:38;;;;;;;47.45;7.40;;;24.50;49.30;;;;;;5062220;28;20387;-61
2023/09/30 10:39:04;;;;;;;14.32;5.93;;;24.50;48.30;;;;;;5057672;28;20415;-61
2023/09/30 10:41:50;;;;;;;11.43;5.50;;;24.50;49.30;;;;;;5058582;28;20033;-62
2023/09/30 10:44:38;;;;;;;10.15;5.50;;;24.50;49.30;;;;;;5063990;28;20036;-61
2023/09/30 10:47:27;;;;;;;15.80;7.05;;;24.50;48.30;;;;;;5053488;28;20621;-61
2023/09/30 10:49:54;;;;;;;13.18;6.50;;;24.40;47.90;;;;;;5060157;28;20131;-61
2023/09/30 10:52:24;;;;;;;10.95;5.68;;;24.30;47.80;;;;;;5061912;28;20041;-62
2023/09/30 10:54:50;;;;;;;10.52;5.57;;;24.20;48.20;;;;;;5060593;28;20025;-62
2023/09/30 10:57:29;;;;;;;11.65;5.68;;;24.10;48.80;;;;;;5066619;28;20028;-62
2023/09/30 11:00:11;;;;;;;14.25;6.22;;;24.10;47.80;;;;;;5075105;28;20117;-62
2023/09/30 11:02:51;;;;;;;12.55;5.45;;;24.10;47.00;;;;;;5069295;28;20031;-61
2023/09/30 11:05:18;;;;;;;13.82;5.65;;;24.10;46.70;;;;;;5068282;28;20043;-61
2023/09/30 11:07:48;;;;;;;12.07;5.93;;;24.20;48.50;;;;;;5068621;28;20025;-61
2023/09/30 11:10:20;;;;;;;12.05;6.03;;;24.10;47.80;;;;;;5064272;28;20036;-62
2023/09/30 11:12:56;;;;;;;12.45;6.63;;;24.10;47.20;;;;;;5065277;28;20128;-63
2023/09/30 11:15:23;;;;;;;12.68;6.30;;;23.90;46.40;;;;;;5069012;28;20029;-62
2023/09/30 11:17:49;;;;;;;12.25;6.30;;;23.90;47.70;;;;;;5056715;28;20028;-62
2023/09/30 11:20:18;;;;;;;11.02;5.78;;;23.90;48.00;;;;;;5064503;28;20024;-62
2023/09/30 11:22:45;;;;;;;14.63;6.60;;;24.00;48.30;;;;;;5073209;28;20036;-61
2023/09/30 11:25:18;;;;;;;13.70;6.55;;;24.10;48.50;;;;;;5065788;28;20035;-62
2023/09/30 11:27:44;;;;;;;10.45;5.28;;;24.30;48.30;;;;;;5061933;28;20036;-62
2023/09/30 11:30:12;;;;;;;12.02;6.80;;;24.40;48.10;;;;;;5061397;28;20380;-61
2023/09/30 11:32:38;;;;;;;15.60;5.88;;;24.50;46.80;;;;;;5065975;28;20032;-62
2023/09/30 11:35:10;;;;;;;12.05;5.60;;;24.50;47.00;;;;;;5070225;28;20017;-62
2023/09/30 11:37:36;;;;;;;12.73;5.85;;;24.30;46.10;;;;;;5059538;28;20017;-62
2023/09/30 11:40:13;;;;;;;11.13;5.82;;;24.20;46.80;;;;;;5064236;28;20568;-61
2023/09/30 11:42:39;;;;;;;9.93;5.60;;;24.10;46.70;;;;;;5052066;28;20036;-62
2023/09/30 11:45:22;;;;;;;13.07;5.75;;;24.00;47.40;;;;;;4971262;28;20028;-61
2023/09/30 11:47:48;;;;;;;13.35;6.18;;;23.90;47.30;;;;;;5065240;28;20020;-63
2023/09/30 11:50:14;;;;;;;11.10;6.10;;;23.80;48.00;;;;;;5069206;28;20055;-61
2023/09/30 11:52:46;;;;;;;12.52;5.70;;;23.80;48.20;;;;;;5062872;28;20468;-62
2023/09/30 11:55:12;;;;;;;14.82;6.18;;;23.80;47.90;;;;;;5060448;28;20024;-61
2023/09/30 11:57:38;;;;;;;14.00;6.55;;;23.70;47.80;;;;;;5070929;28;20366;-61
2023/09/30 12:00:13;;;;;;;12.23;6.20;;;23.70;48.20;;;;;;5071510;28;20025;-61
2023/09/30 12:02:40;;;;;;;14.95;6.30;;;23.70;49.10;;;;;;5068277;28;20039;-61
2023/09/30 12:05:11;;;;;;;13.63;6.53;;;23.80;48.70;;;;;;5061087;28;20028;-62
2023/09/30 12:07:38;;;;;;;16.95;6.90;;;24.00;49.00;;;;;;5063811;28;20113;-62
2023/09/30 12:10:04;;;;;;;18.70;7.22;;;24.20;48.50;;;;;;5067452;28;20456;-62
2023/09/30 12:12:30;;;;;;;15.15;6.55;;;24.40;48.30;;;;;;5074016;28;20052;-62
2023/09/30 12:14:56;;;;;;;14.10;7.35;;;24.50;48.10;;;;;;5065699;28;20115;-62
2023/09/30 12:17:22;;;;;;;16.35;7.38;;;24.70;47.30;;;;;;5068169;28;20494;-61
2023/09/30 12:19:48;;;;;;;13.02;7.25;;;24.90;46.80;;;;;;5064787;28;20020;-64
2023/09/30 12:22:13;;;;;;;15.60;6.40;;;25.00;46.40;;;;;;5071777;28;20047;-62
2023/09/30 12:24:39;;;;;;;14.18;6.35;;;25.10;46.20;;;;;;5063058;28;20475;-62
2023/09/30 12:27:06;;;;;;;12.82;6.00;;;25.00;45.70;;;;;;5064379;28;20047;-61
2023/09/30 12:29:32;;;;;;;16.73;6.65;;;25.00;45.70;;;;;;5057814;28;20039;-62
2023/09/30 12:31:57;;;;;;;11.45;5.53;;;24.90;45.60;;;;;;5066885;28;20055;-63
2023/09/30 12:34:25;;;;;;;11.55;6.10;;;24.80;46.10;;;;;;5067832;28;20064;-61
2023/09/30 12:36:51;;;;;;;13.15;6.53;;;24.70;46.10;;;;;;5063441;28;20029;-62
2023/09/30 12:39:23;;;;;;;15.75;7.03;;;24.60;45.80;;;;;;5066975;28;20468;-63
2023/09/30 12:41:49;;;;;;;13.35;6.45;;;24.40;46.10;;;;;;5068198;28;20029;-61
2023/09/30 12:44:15;;;;;;;13.13;6.60;;;24.30;46.40;;;;;;5069832;28;20414;-62